Time;durP1;ratioP1;P1;durP2;ratioP2;P2;SDS_P1;SDS_P2;PMS_P1;PMS_P2;Temp;Humidity;BMP_temperature;BMP_pressure;BME280_temperature;BME280_humidity;BME280_pressure;Samples;Min_cycle;Max_cycle;Signal;HPM_P1;HPM_P2
2022/06/27 00:00:30;;;;;;;10.25;2.33;;;;;;;;;;3347048;42;20164;-60
2022/06/27 00:02:56;;;;;;;7.77;2.40;;;;;;;;;;3340682;42;20555;-59
2022/06/27 00:05:22;;;;;;;6.60;2.40;;;;;;;;;;3343342;42;20614;-59
2022/06/27 00:07:48;;;;;;;5.93;2.22;;;;;;;;;;3343728;42;20564;-59
2022/06/27 00:10:14;;;;;;;5.67;2.00;;;;;;;;;;3348847;42;20497;-60
2022/06/27 00:12:40;;;;;;;5.80;2.00;;;;;;;;;;3341531;42;20502;-59
2022/06/27 00:15:07;;;;;;;7.15;2.05;;;;;;;;;;3346065;42;20546;-60
2022/06/27 00:17:33;;;;;;;6.45;2.03;;;;;;;;;;3342276;42;20085;-60
2022/06/27 00:19:59;;;;;;;6.20;2.00;;;;;;;;;;3343573;42;20655;-60
2022/06/27 00:22:26;;;;;;;7.93;1.98;;;;;;;;;;3341845;42;20093;-60
2022/06/27 00:24:52;;;;;;;6.22;2.10;;;;;;;;;;3346134;42;20097;-60
2022/06/27 00:27:18;;;;;;;6.68;2.08;;;;;;;;;;3340195;42;20220;-60
2022/06/27 00:29:44;;;;;;;6.78;2.15;;;;;;;;;;3344517;42;20469;-60
2022/06/27 00:32:10;;;;;;;6.50;2.20;;;;;;;;;;3341086;42;20101;-59
2022/06/27 00:34:36;;;;;;;7.97;2.15;;;;;;;;;;3344683;42;20510;-60
2022/06/27 00:37:02;;;;;;;6.05;2.20;;;;;;;;;;3348793;42;20111;-59
2022/06/27 00:39:28;;;;;;;7.03;2.03;;;;;;;;;;3340691;42;20129;-60
2022/06/27 00:41:54;;;;;;;6.43;2.13;;;;;;;;;;3343836;42;20089;-59
2022/06/27 00:44:49;;;;;;;5.80;1.90;;;;;;;;;;3348241;42;20175;-60
2022/06/27 00:47:15;;;;;;;6.53;2.10;;;;;;;;;;3343277;42;20100;-58
2022/06/27 00:49:41;;;;;;;8.27;2.00;;;;;;;;;;3350413;42;20641;-59
2022/06/27 00:52:09;;;;;;;7.45;2.10;;;;;;;;;;3346760;42;20676;-59
2022/06/27 00:54:36;;;;;;;7.53;2.10;;;;;;;;;;3344648;42;20494;-59
2022/06/27 00:57:02;;;;;;;6.22;2.13;;;;;;;;;;3340168;42;20095;-59
2022/06/27 00:59:28;;;;;;;8.68;2.17;;;;;;;;;;3343442;42;20108;-59
2022/06/27 01:01:54;;;;;;;7.30;1.83;;;;;;;;;;3342231;42;20080;-59
2022/06/27 01:04:20;;;;;;;10.53;1.97;;;;;;;;;;3342398;42;20115;-59
2022/06/27 01:06:49;;;;;;;6.88;2.05;;;;;;;;;;3345636;42;20560;-59
2022/06/27 01:09:15;;;;;;;6.50;2.10;;;;;;;;;;3333961;42;20085;-58
2022/06/27 01:11:40;;;;;;;6.00;1.90;;;;;;;;;;3332520;42;20115;-59
2022/06/27 01:14:06;;;;;;;6.37;2.20;;;;;;;;;;3345867;42;20599;-58
2022/06/27 01:16:32;;;;;;;8.17;2.20;;;;;;;;;;3339201;42;20376;-59
2022/06/27 01:18:58;;;;;;;7.13;2.20;;;;;;;;;;3342801;42;20085;-57
2022/06/27 01:21:25;;;;;;;5.70;1.85;;;;;;;;;;3335816;42;20080;-58
2022/06/27 01:23:51;;;;;;;5.35;1.85;;;;;;;;;;3346563;42;20153;-59
2022/06/27 01:26:19;;;;;;;5.00;1.73;;;;;;;;;;3340108;42;20093;-60
2022/06/27 01:28:45;;;;;;;6.63;1.98;;;;;;;;;;3338573;42;20157;-59
2022/06/27 01:31:12;;;;;;;6.35;1.90;;;;;;;;;;3345777;42;20085;-59
2022/06/27 01:33:38;;;;;;;6.68;2.00;;;;;;;;;;3348366;42;20107;-59
2022/06/27 01:38:50;;;;;;;5.87;1.83;;;;;;;;;;3344517;42;20155;-57
2022/06/27 01:41:16;;;;;;;6.32;1.70;;;;;;;;;;3342560;42;20494;-59
2022/06/27 01:43:43;;;;;;;6.45;1.80;;;;;;;;;;3346053;42;20100;-59
2022/06/27 01:46:09;;;;;;;5.28;1.88;;;;;;;;;;3347075;42;20111;-58
2022/06/27 01:48:35;;;;;;;6.03;1.80;;;;;;;;;;3343718;42;20085;-57
2022/06/27 01:51:01;;;;;;;6.75;2.00;;;;;;;;;;3339187;42;20147;-58
2022/06/27 01:53:27;;;;;;;8.13;1.90;;;;;;;;;;3337927;42;20095;-57
2022/06/27 01:55:53;;;;;;;7.70;1.90;;;;;;;;;;3337326;42;20092;-57
2022/06/27 01:58:19;;;;;;;6.57;1.90;;;;;;;;;;3343929;42;20119;-58
2022/06/27 02:00:45;;;;;;;6.15;1.85;;;;;;;;;;3343634;42;20544;-58
2022/06/27 02:03:11;;;;;;;7.20;1.85;;;;;;;;;;3346771;42;20100;-56
2022/06/27 02:05:37;;;;;;;6.40;1.73;;;;;;;;;;3350283;42;20093;-58
2022/06/27 02:08:03;;;;;;;10.27;2.10;;;;;;;;;;3344407;42;20626;-58
2022/06/27 02:10:29;;;;;;;6.88;1.80;;;;;;;;;;3350455;42;20095;-58
2022/06/27 02:12:55;;;;;;;6.15;1.83;;;;;;;;;;3344299;42;20107;-58
2022/06/27 02:15:22;;;;;;;6.43;1.80;;;;;;;;;;3344288;42;20136;-58
2022/06/27 02:17:48;;;;;;;6.60;1.83;;;;;;;;;;3344308;42;20127;-58
2022/06/27 02:20:14;;;;;;;6.57;1.75;;;;;;;;;;3346132;42;20495;-58
2022/06/27 02:22:41;;;;;;;7.88;1.80;;;;;;;;;;3349746;42;20111;-58
2022/06/27 02:25:07;;;;;;;6.55;1.70;;;;;;;;;;3344539;42;20109;-58
2022/06/27 02:27:34;;;;;;;6.32;1.85;;;;;;;;;;3348026;42;20108;-57
2022/06/27 02:30:00;;;;;;;5.90;1.80;;;;;;;;;;3345668;42;20085;-59
2022/06/27 02:32:28;;;;;;;4.72;1.80;;;;;;;;;;3347491;42;20104;-58
2022/06/27 02:34:57;;;;;;;6.95;1.88;;;;;;;;;;3341543;42;20097;-59
2022/06/27 02:37:23;;;;;;;5.93;1.88;;;;;;;;;;3344915;42;20148;-58
2022/06/27 02:39:49;;;;;;;8.10;3.38;;;;;;;;;;3342870;42;20534;-57
2022/06/27 02:42:16;;;;;;;5.87;2.20;;;;;;;;;;3342818;42;20156;-58
2022/06/27 02:44:42;;;;;;;8.70;2.30;;;;;;;;;;3348483;42;20156;-57
2022/06/27 02:47:08;;;;;;;7.93;2.10;;;;;;;;;;3336711;42;20101;-58
2022/06/27 02:49:34;;;;;;;8.88;2.00;;;;;;;;;;3346287;42;20112;-58
2022/06/27 02:52:27;;;;;;;8.20;2.10;;;;;;;;;;3347732;42;20081;-58
2022/06/27 02:54:59;;;;;;;8.95;2.00;;;;;;;;;;3336955;42;20116;-58
2022/06/27 02:57:40;;;;;;;6.03;1.90;;;;;;;;;;3344800;42;20128;-57
2022/06/27 03:00:07;;;;;;;6.55;2.10;;;;;;;;;;3343104;42;20567;-62
2022/06/27 03:02:34;;;;;;;8.60;2.30;;;;;;;;;;3345832;42;20564;-59
2022/06/27 03:05:00;;;;;;;5.43;2.23;;;;;;;;;;3332615;42;20097;-57
2022/06/27 03:07:26;;;;;;;6.20;2.13;;;;;;;;;;3341913;42;20099;-57
2022/06/27 03:09:52;;;;;;;7.38;2.00;;;;;;;;;;3349277;42;20141;-59
2022/06/27 03:12:18;;;;;;;5.83;2.13;;;;;;;;;;3349549;42;20096;-57
2022/06/27 03:14:44;;;;;;;6.68;1.88;;;;;;;;;;3349557;42;20556;-59
2022/06/27 03:17:10;;;;;;;7.68;2.20;;;;;;;;;;3345244;42;20608;-58
2022/06/27 03:19:36;;;;;;;5.78;2.40;;;;;;;;;;3346355;42;20097;-59
2022/06/27 03:22:02;;;;;;;7.40;2.00;;;;;;;;;;3344782;42;20164;-58
2022/06/27 03:24:28;;;;;;;10.35;2.42;;;;;;;;;;3345816;42;20608;-58
2022/06/27 03:26:54;;;;;;;7.15;2.17;;;;;;;;;;3341061;42;20085;-57
2022/06/27 03:29:20;;;;;;;9.38;2.40;;;;;;;;;;3344812;42;20115;-58
2022/06/27 03:31:46;;;;;;;7.47;2.30;;;;;;;;;;3344958;42;20103;-58
2022/06/27 03:34:11;;;;;;;8.32;2.60;;;;;;;;;;3348019;42;20088;-58
2022/06/27 03:36:38;;;;;;;9.55;2.65;;;;;;;;;;3343783;42;20111;-58
2022/06/27 03:39:04;;;;;;;8.03;2.20;;;;;;;;;;3343032;42;20089;-58
2022/06/27 03:41:30;;;;;;;9.55;2.40;;;;;;;;;;3349195;42;20175;-58
2022/06/27 03:43:56;;;;;;;10.80;2.53;;;;;;;;;;3349130;42;20100;-58
2022/06/27 03:46:22;;;;;;;7.45;2.20;;;;;;;;;;3343070;42;20547;-58
2022/06/27 03:51:32;;;;;;;6.90;2.15;;;;;;;;;;3342654;42;20089;-58
2022/06/27 03:53:58;;;;;;;6.43;2.42;;;;;;;;;;3345393;42;20103;-59
2022/06/27 03:56:24;;;;;;;7.93;2.00;;;;;;;;;;3349469;42;20159;-59
2022/06/27 03:58:50;;;;;;;6.67;2.80;;;;;;;;;;3342609;42;20085;-59
2022/06/27 04:01:16;;;;;;;8.00;2.47;;;;;;;;;;3348383;42;20214;-59
2022/06/27 04:03:42;;;;;;;7.95;2.45;;;;;;;;;;3341019;42;20144;-59
2022/06/27 04:06:08;;;;;;;8.90;2.23;;;;;;;;;;3345605;42;20085;-58
2022/06/27 04:08:34;;;;;;;11.02;2.38;;;;;;;;;;3343661;42;20096;-58
2022/06/27 04:11:00;;;;;;;8.23;2.55;;;;;;;;;;3343222;42;20077;-58
2022/06/27 04:13:26;;;;;;;7.30;2.20;;;;;;;;;;3345154;42;20160;-58
2022/06/27 04:15:52;;;;;;;8.10;2.10;;;;;;;;;;3346403;42;20281;-59
2022/06/27 04:18:18;;;;;;;7.78;1.90;;;;;;;;;;3344573;42;20148;-58
2022/06/27 04:20:44;;;;;;;7.95;2.00;;;;;;;;;;3346996;42;20077;-59
2022/06/27 04:23:10;;;;;;;8.47;2.30;;;;;;;;;;3343085;42;20092;-57
2022/06/27 04:25:36;;;;;;;9.00;2.33;;;;;;;;;;3345305;42;20104;-57
2022/06/27 04:28:02;;;;;;;7.95;2.78;;;;;;;;;;3345461;42;20117;-57
2022/06/27 04:30:28;;;;;;;8.07;2.00;;;;;;;;;;3346616;42;20567;-57
2022/06/27 04:32:57;;;;;;;8.68;2.47;;;;;;;;;;3346228;42;20119;-58
2022/06/27 04:35:24;;;;;;;6.30;2.10;;;;;;;;;;3345656;42;20182;-55
2022/06/27 04:37:50;;;;;;;8.55;2.20;;;;;;;;;;3344316;42;20144;-58
2022/06/27 04:40:19;;;;;;;6.85;2.33;;;;;;;;;;3344260;42;20101;-58
2022/06/27 04:42:48;;;;;;;9.07;2.40;;;;;;;;;;3340890;42;20095;-57
2022/06/27 04:45:14;;;;;;;9.70;2.55;;;;;;;;;;3340670;42;20560;-58
2022/06/27 04:47:41;;;;;;;7.77;2.40;;;;;;;;;;3342638;42;20119;-58
2022/06/27 04:50:09;;;;;;;10.38;2.60;;;;;;;;;;3345388;42;20177;-57
2022/06/27 04:52:38;;;;;;;8.75;2.50;;;;;;;;;;3346861;42;20263;-59
2022/06/27 04:55:07;;;;;;;9.55;2.30;;;;;;;;;;3345336;42;20097;-57
2022/06/27 04:57:34;;;;;;;8.13;2.83;;;;;;;;;;3343046;42;20081;-57
2022/06/27 05:00:01;;;;;;;8.03;2.20;;;;;;;;;;3345690;42;20133;-58
2022/06/27 05:02:28;;;;;;;8.80;2.00;;;;;;;;;;3344467;42;20109;-57
2022/06/27 05:04:54;;;;;;;7.32;2.17;;;;;;;;;;3338944;42;20111;-58
2022/06/27 05:07:22;;;;;;;9.07;2.38;;;;;;;;;;3345390;42;20081;-59
2022/06/27 05:09:47;;;;;;;7.93;2.38;;;;;;;;;;3340289;42;20120;-57
2022/06/27 05:12:13;;;;;;;8.48;2.40;;;;;;;;;;3348653;42;20089;-58
2022/06/27 05:14:39;;;;;;;11.98;2.50;;;;;;;;;;3342776;42;20619;-58
2022/06/27 05:17:06;;;;;;;7.20;1.95;;;;;;;;;;3342678;42;20554;-57
2022/06/27 05:19:32;;;;;;;5.70;1.90;;;;;;;;;;3342277;42;20179;-57
2022/06/27 05:21:58;;;;;;;6.75;2.22;;;;;;;;;;3344464;42;20135;-58
2022/06/27 05:24:24;;;;;;;10.00;2.42;;;;;;;;;;3348537;42;20099;-62
2022/06/27 05:26:50;;;;;;;8.18;2.33;;;;;;;;;;3349655;42;20195;-59
2022/06/27 05:29:16;;;;;;;10.37;2.73;;;;;;;;;;3345175;42;20175;-58
2022/06/27 05:31:42;;;;;;;10.95;2.67;;;;;;;;;;3346019;42;20097;-58
2022/06/27 05:34:08;;;;;;;8.43;2.53;;;;;;;;;;3346303;42;20080;-58
2022/06/27 05:36:34;;;;;;;9.27;2.63;;;;;;;;;;3346606;42;20085;-59
2022/06/27 05:39:00;;;;;;;8.20;2.40;;;;;;;;;;3347771;42;20195;-58
2022/06/27 05:41:27;;;;;;;8.52;2.17;;;;;;;;;;3346187;42;20122;-57
2022/06/27 05:43:53;;;;;;;9.80;2.30;;;;;;;;;;3352096;42;20115;-59
2022/06/27 05:46:20;;;;;;;7.95;2.35;;;;;;;;;;3354187;42;20159;-58
2022/06/27 05:48:46;;;;;;;9.90;2.40;;;;;;;;;;3352566;42;20660;-60
2022/06/27 05:51:12;;;;;;;6.55;2.63;;;;;;;;;;3360359;42;20100;-59
2022/06/27 05:53:38;;;;;;;7.75;2.60;;;;;;;;;;3352945;42;20114;-59
2022/06/27 05:56:06;;;;;;;8.73;2.60;;;;;;;;;;3357269;42;20626;-58
2022/06/27 05:58:32;;;;;;;9.73;2.90;;;;;;;;;;3352700;42;20104;-58
2022/06/27 06:00:58;;;;;;;9.37;2.23;;;;;;;;;;3353783;42;20103;-59
2022/06/27 06:03:25;;;;;;;8.68;1.98;;;;;;;;;;3353972;42;20555;-59
2022/06/27 06:05:54;;;;;;;8.13;2.38;;;;;;;;;;3354403;42;20392;-57
2022/06/27 06:08:25;;;;;;;10.77;1.90;;;;;;;;;;3353953;42;20080;-60
2022/06/27 06:10:51;;;;;;;7.47;1.70;;;;;;;;;;3352889;42;20159;-59
2022/06/27 06:13:18;;;;;;;5.33;1.93;;;;;;;;;;3352767;42;20084;-59
2022/06/27 06:15:45;;;;;;;6.88;1.80;;;;;;;;;;3346346;42;20109;-58
2022/06/27 06:18:12;;;;;;;5.60;1.60;;;;;;;;;;3346936;42;20140;-58
2022/06/27 06:20:37;;;;;;;9.18;2.13;;;;;;;;;;3344478;42;20192;-59
2022/06/27 06:23:03;;;;;;;7.23;2.00;;;;;;;;;;3341506;42;20096;-59
2022/06/27 06:25:30;;;;;;;6.97;1.70;;;;;;;;;;3348655;42;20780;-58
2022/06/27 06:28:02;;;;;;;6.90;1.88;;;;;;;;;;3343560;42;20464;-58
2022/06/27 06:30:29;;;;;;;6.43;1.92;;;;;;;;;;3343908;42;20160;-59
2022/06/27 06:32:56;;;;;;;8.27;1.88;;;;;;;;;;3345837;42;20085;-58
2022/06/27 06:35:23;;;;;;;6.03;1.70;;;;;;;;;;3346107;42;20195;-58
2022/06/27 06:37:51;;;;;;;5.93;2.27;;;;;;;;;;3345394;42;20170;-60
2022/06/27 06:40:16;;;;;;;5.25;1.92;;;;;;;;;;3344602;42;20156;-59
2022/06/27 06:42:43;;;;;;;5.25;1.80;;;;;;;;;;3343779;42;20129;-57
2022/06/27 06:45:10;;;;;;;5.78;2.00;;;;;;;;;;3344983;42;20107;-59
2022/06/27 06:47:46;;;;;;;8.53;1.93;;;;;;;;;;3344525;42;20097;-59
2022/06/27 06:50:16;;;;;;;6.38;1.80;;;;;;;;;;3344354;42;20196;-59
2022/06/27 06:52:42;;;;;;;5.55;1.70;;;;;;;;;;3348545;42;20099;-59
2022/06/27 06:55:12;;;;;;;5.68;1.70;;;;;;;;;;3340742;42;20101;-59
2022/06/27 06:57:38;;;;;;;6.13;1.90;;;;;;;;;;3341297;42;20148;-59
2022/06/27 07:00:08;;;;;;;7.27;1.97;;;;;;;;;;3344732;42;20112;-59
2022/06/27 07:02:34;;;;;;;5.43;1.80;;;;;;;;;;3351279;42;20168;-59
2022/06/27 07:05:02;;;;;;;6.85;1.80;;;;;;;;;;3345466;42;20089;-59
2022/06/27 07:07:28;;;;;;;6.82;1.88;;;;;;;;;;3343039;42;20586;-59
2022/06/27 07:09:55;;;;;;;7.47;1.98;;;;;;;;;;3344427;42;20112;-59
2022/06/27 07:12:21;;;;;;;6.13;1.70;;;;;;;;;;3345536;42;20089;-60
2022/06/27 07:14:47;;;;;;;6.95;1.73;;;;;;;;;;3346703;42;20097;-58
2022/06/27 07:17:13;;;;;;;8.40;1.95;;;;;;;;;;3349635;42;20241;-59
2022/06/27 07:19:39;;;;;;;7.57;2.60;;;;;;;;;;3353708;42;20088;-55
2022/06/27 07:22:06;;;;;;;6.93;1.90;;;;;;;;;;3349589;42;20108;-57
2022/06/27 07:24:32;;;;;;;7.10;2.10;;;;;;;;;;3346406;42;20193;-59
2022/06/27 07:26:59;;;;;;;5.70;1.77;;;;;;;;;;3345163;42;20089;-58
2022/06/27 07:29:26;;;;;;;8.20;1.70;;;;;;;;;;3344435;42;20102;-59
2022/06/27 07:31:53;;;;;;;6.72;1.90;;;;;;;;;;3346282;42;20140;-59
2022/06/27 07:34:21;;;;;;;6.32;1.80;;;;;;;;;;3346725;42;20084;-58
2022/06/27 07:36:48;;;;;;;6.67;1.93;;;;;;;;;;3345839;42;20101;-57
2022/06/27 07:39:14;;;;;;;5.63;1.90;;;;;;;;;;3341310;42;20144;-57
2022/06/27 07:41:40;;;;;;;6.38;1.90;;;;;;;;;;3341933;42;20100;-58
2022/06/27 07:44:06;;;;;;;7.43;2.00;;;;;;;;;;3345502;42;20101;-59
2022/06/27 07:46:34;;;;;;;8.93;1.90;;;;;;;;;;3345845;42;20100;-60
2022/06/27 07:49:00;;;;;;;5.93;1.80;;;;;;;;;;3345797;42;20112;-60
2022/06/27 07:51:27;;;;;;;6.20;1.80;;;;;;;;;;3346136;42;20086;-59
2022/06/27 07:53:53;;;;;;;7.28;1.90;;;;;;;;;;3344785;42;20134;-59
2022/06/27 07:56:20;;;;;;;8.23;2.00;;;;;;;;;;3345479;42;20085;-60
2022/06/27 07:58:48;;;;;;;9.10;1.93;;;;;;;;;;3343383;42;20095;-60
2022/06/27 08:01:14;;;;;;;5.85;1.80;;;;;;;;;;3342615;42;20632;-60
2022/06/27 08:03:50;;;;;;;5.78;1.98;;;;;;;;;;3345671;42;20585;-58
2022/06/27 08:06:24;;;;;;;6.65;1.95;;;;;;;;;;3340215;42;20141;-58
2022/06/27 08:08:51;;;;;;;5.63;2.00;;;;;;;;;;3342479;42;20548;-58
2022/06/27 08:11:23;;;;;;;6.33;2.00;;;;;;;;;;3348423;42;20116;-57
2022/06/27 08:13:50;;;;;;;6.85;2.13;;;;;;;;;;3344339;42;20128;-58
2022/06/27 08:16:18;;;;;;;5.75;2.00;;;;;;;;;;3339552;42;20092;-58
2022/06/27 08:18:46;;;;;;;6.60;2.20;;;;;;;;;;3344636;42;20138;-58
2022/06/27 08:21:14;;;;;;;7.43;2.00;;;;;;;;;;3342589;42;20092;-58
2022/06/27 08:23:40;;;;;;;5.47;1.80;;;;;;;;;;3347053;42;20089;-57
2022/06/27 08:26:07;;;;;;;8.77;2.20;;;;;;;;;;3345394;42;20163;-59
2022/06/27 08:28:37;;;;;;;8.23;2.10;;;;;;;;;;3346106;42;20101;-58
2022/06/27 08:31:05;;;;;;;7.32;1.92;;;;;;;;;;3343960;42;20121;-59
2022/06/27 08:33:31;;;;;;;7.43;2.47;;;;;;;;;;3344418;42;20093;-59
2022/06/27 08:35:58;;;;;;;5.87;1.97;;;;;;;;;;3350053;42;20510;-58
2022/06/27 08:38:24;;;;;;;5.15;1.90;;;;;;;;;;3342520;42;20511;-59
2022/06/27 08:40:50;;;;;;;6.97;2.13;;;;;;;;;;3345230;42;20875;-57
2022/06/27 08:43:17;;;;;;;6.18;2.10;;;;;;;;;;3335155;42;20111;-62
2022/06/27 08:45:44;;;;;;;6.82;2.50;;;;;;;;;;3344926;42;20101;-56
2022/06/27 08:48:11;;;;;;;6.17;2.50;;;;;;;;;;3342623;42;20123;-60
2022/06/27 08:50:37;;;;;;;6.47;2.05;;;;;;;;;;3345595;42;20556;-56
2022/06/27 08:53:04;;;;;;;7.68;2.25;;;;;;;;;;3344678;42;20115;-58
2022/06/27 08:55:31;;;;;;;6.78;2.05;;;;;;;;;;3342379;42;20089;-60
2022/06/27 08:58:03;;;;;;;6.70;2.40;;;;;;;;;;3344061;42;20104;-58
2022/06/27 09:00:30;;;;;;;5.53;2.20;;;;;;;;;;3344095;42;20168;-57
2022/06/27 09:02:56;;;;;;;6.22;2.10;;;;;;;;;;3344969;42;20088;-58
2022/06/27 09:05:24;;;;;;;6.55;2.20;;;;;;;;;;3342688;42;20567;-57
2022/06/27 09:08:02;;;;;;;6.60;2.20;;;;;;;;;;3344266;42;20089;-58
2022/06/27 09:10:32;;;;;;;7.67;2.57;;;;;;;;;;3336249;42;20520;-57
2022/06/27 09:13:02;;;;;;;6.93;2.50;;;;;;;;;;3343836;42;20089;-58
2022/06/27 09:15:50;;;;;;;7.53;2.40;;;;;;;;;;3343534;42;20607;-57
2022/06/27 09:18:18;;;;;;;8.57;2.60;;;;;;;;;;3342818;42;20567;-58
2022/06/27 09:20:48;;;;;;;5.82;2.30;;;;;;;;;;3344153;42;20502;-59
2022/06/27 09:23:35;;;;;;;7.30;2.40;;;;;;;;;;3344054;42;20090;-58
2022/06/27 09:26:12;;;;;;;8.23;3.00;;;;;;;;;;3343729;42;20109;-57
2022/06/27 09:28:40;;;;;;;7.22;2.78;;;;;;;;;;3342518;42;20093;-59
2022/06/27 09:31:10;;;;;;;6.50;2.40;;;;;;;;;;3339936;42;20141;-58
2022/06/27 09:33:38;;;;;;;7.45;2.33;;;;;;;;;;3341565;42;20093;-57
2022/06/27 09:36:14;;;;;;;5.87;2.30;;;;;;;;;;3343375;42;20460;-57
2022/06/27 09:38:41;;;;;;;7.05;2.72;;;;;;;;;;3347685;42;20095;-55
2022/06/27 09:41:09;;;;;;;6.00;2.63;;;;;;;;;;3348419;42;20091;-57
2022/06/27 09:43:38;;;;;;;7.38;2.38;;;;;;;;;;3343306;42;20144;-58
2022/06/27 09:46:03;;;;;;;7.80;2.50;;;;;;;;;;3334593;42;20093;-57
2022/06/27 09:48:30;;;;;;;7.03;2.50;;;;;;;;;;3342983;42;20207;-57
2022/06/27 09:50:56;;;;;;;7.38;2.42;;;;;;;;;;3335503;42;20116;-57
2022/06/27 09:53:26;;;;;;;7.53;2.50;;;;;;;;;;3338834;42;20104;-57
2022/06/27 09:55:52;;;;;;;7.80;2.55;;;;;;;;;;3343747;42;20523;-59
2022/06/27 09:58:18;;;;;;;7.35;2.80;;;;;;;;;;3345646;42;20132;-58
2022/06/27 10:00:45;;;;;;;8.10;2.97;;;;;;;;;;3341635;42;20089;-59
2022/06/27 10:03:10;;;;;;;8.70;2.80;;;;;;;;;;3342370;42;20081;-58
2022/06/27 10:05:37;;;;;;;6.35;2.55;;;;;;;;;;3344658;42;20280;-57
2022/06/27 10:08:05;;;;;;;7.82;2.75;;;;;;;;;;3339989;42;20560;-58
2022/06/27 10:10:52;;;;;;;8.17;2.60;;;;;;;;;;3344434;42;20113;-56
2022/06/27 10:13:18;;;;;;;7.85;2.83;;;;;;;;;;3344505;42;20507;-59
2022/06/27 10:15:44;;;;;;;9.18;2.83;;;;;;;;;;3343469;42;20564;-58
2022/06/27 10:18:10;;;;;;;8.68;3.03;;;;;;;;;;3339843;42;20100;-57
2022/06/27 10:20:37;;;;;;;7.17;2.63;;;;;;;;;;3344372;42;20093;-58
2022/06/27 10:23:08;;;;;;;8.52;2.60;;;;;;;;;;3348920;42;20575;-58
2022/06/27 10:25:35;;;;;;;6.90;2.50;;;;;;;;;;3341975;42;20224;-57
2022/06/27 10:28:10;;;;;;;7.78;2.60;;;;;;;;;;3341257;42;20089;-58
2022/06/27 10:30:52;;;;;;;8.02;2.80;;;;;;;;;;3349330;42;20085;-59
2022/06/27 10:33:17;;;;;;;6.37;2.37;;;;;;;;;;3344386;42;20179;-58
2022/06/27 10:35:59;;;;;;;7.50;2.60;;;;;;;;;;3343190;42;20564;-58
2022/06/27 10:38:30;;;;;;;7.57;2.80;;;;;;;;;;3347931;42;20187;-59
2022/06/27 10:40:57;;;;;;;6.05;2.53;;;;;;;;;;3346991;42;20148;-59
2022/06/27 10:43:38;;;;;;;9.88;2.50;;;;;;;;;;3345307;42;20100;-57
2022/06/27 10:46:10;;;;;;;8.43;2.50;;;;;;;;;;3342205;42;20101;-57
2022/06/27 10:48:40;;;;;;;11.18;2.85;;;;;;;;;;3340858;42;20081;-62
2022/06/27 10:51:18;;;;;;;7.78;2.63;;;;;;;;;;3341100;42;20097;-57
2022/06/27 10:53:47;;;;;;;6.38;2.40;;;;;;;;;;3342128;42;20173;-54
2022/06/27 10:56:28;;;;;;;6.57;2.47;;;;;;;;;;3344154;42;20136;-57
2022/06/27 10:58:55;;;;;;;7.33;2.90;;;;;;;;;;3343689;42;20100;-59
2022/06/27 11:01:21;;;;;;;8.38;2.30;;;;;;;;;;3346398;42;20160;-60
2022/06/27 11:03:48;;;;;;;9.02;2.50;;;;;;;;;;3348684;42;20160;-67
2022/06/27 11:06:14;;;;;;;7.57;2.45;;;;;;;;;;3344906;42;20254;-59
2022/06/27 11:08:41;;;;;;;6.75;2.63;;;;;;;;;;3340474;42;20082;-60
2022/06/27 11:11:07;;;;;;;7.97;2.60;;;;;;;;;;3341353;42;20121;-58
2022/06/27 11:13:41;;;;;;;6.80;2.50;;;;;;;;;;3344215;42;20108;-59
2022/06/27 11:16:09;;;;;;;6.43;2.50;;;;;;;;;;3343640;42;20100;-60
2022/06/27 11:20:04;;;;;;;6.40;2.35;;;;;;;;;;3346612;42;20148;-61
2022/06/27 11:21:50;;;;;;;7.10;2.30;;;;;;;;;;3345392;42;20595;-59
2022/06/27 11:24:16;;;;;;;5.60;2.30;;;;;;;;;;3342647;42;20091;-58
2022/06/27 11:26:49;;;;;;;6.82;2.33;;;;;;;;;;3349272;42;20085;-60
2022/06/27 11:32:08;;;;;;;6.22;2.35;;;;;;;;;;3347580;42;20152;-59
2022/06/27 11:34:36;;;;;;;6.30;2.40;;;;;;;;;;3339331;42;20164;-58
2022/06/27 11:37:10;;;;;;;6.78;2.22;;;;;;;;;;3343692;42;20081;-59
2022/06/27 11:39:36;;;;;;;7.35;2.35;;;;;;;;;;3343110;42;20077;-58
2022/06/27 11:42:12;;;;;;;7.30;2.33;;;;;;;;;;3340991;42;20255;-58
2022/06/27 11:44:39;;;;;;;6.65;2.20;;;;;;;;;;3342592;42;20644;-59
2022/06/27 11:47:09;;;;;;;6.53;2.33;;;;;;;;;;3340567;42;20101;-58
2022/06/27 11:49:39;;;;;;;6.72;2.40;;;;;;;;;;3340359;42;20554;-58
2022/06/27 11:52:06;;;;;;;5.75;2.35;;;;;;;;;;3344873;42;20104;-59
2022/06/27 11:54:42;;;;;;;7.90;2.67;;;;;;;;;;3340046;42;20141;-59
2022/06/27 11:57:33;;;;;;;6.82;2.30;;;;;;;;;;3344868;42;20088;-59
2022/06/27 12:00:00;;;;;;;6.30;2.47;;;;;;;;;;3345591;42;20172;-59
2022/06/27 12:02:36;;;;;;;6.28;2.30;;;;;;;;;;3345833;42;20175;-61
2022/06/27 12:05:19;;;;;;;9.20;2.33;;;;;;;;;;3338928;42;20109;-59
2022/06/27 12:08:14;;;;;;;6.85;2.70;;;;;;;;;;3354683;42;20514;-61
2022/06/27 12:13:36;;;;;;;7.87;2.30;;;;;;;;;;3345619;42;20140;-58
2022/06/27 12:16:03;;;;;;;6.50;2.45;;;;;;;;;;3344350;42;20085;-58
2022/06/27 12:18:36;;;;;;;7.53;2.60;;;;;;;;;;3343923;42;20089;-58
2022/06/27 12:21:03;;;;;;;6.50;2.33;;;;;;;;;;3342998;42;20085;-57
2022/06/27 12:23:29;;;;;;;6.55;2.35;;;;;;;;;;3342790;42;20556;-58
2022/06/27 12:25:56;;;;;;;12.10;2.40;;;;;;;;;;3343918;42;20096;-59
2022/06/27 12:28:22;;;;;;;7.70;2.33;;;;;;;;;;3341537;42;20104;-56
2022/06/27 12:30:48;;;;;;;5.88;2.30;;;;;;;;;;3343502;42;20089;-54
2022/06/27 12:33:14;;;;;;;6.57;2.33;;;;;;;;;;3352167;42;20088;-56
2022/06/27 12:35:40;;;;;;;8.17;2.70;;;;;;;;;;3344123;42;20121;-59
2022/06/27 12:38:07;;;;;;;6.72;2.60;;;;;;;;;;3343755;42;20096;-59
2022/06/27 12:40:33;;;;;;;6.57;2.30;;;;;;;;;;3343610;42;20096;-61
2022/06/27 12:42:59;;;;;;;5.93;2.55;;;;;;;;;;3340287;42;20091;-58
2022/06/27 12:45:25;;;;;;;7.90;2.53;;;;;;;;;;3343420;42;20089;-58
2022/06/27 12:47:51;;;;;;;7.47;2.30;;;;;;;;;;3343371;42;20103;-57
2022/06/27 12:50:17;;;;;;;6.47;2.30;;;;;;;;;;3340175;42;20120;-55
2022/06/27 12:52:43;;;;;;;7.22;2.47;;;;;;;;;;3339503;42;20213;-58
2022/06/27 12:55:10;;;;;;;7.35;2.60;;;;;;;;;;3344150;42;20153;-59
2022/06/27 12:57:36;;;;;;;9.87;2.67;;;;;;;;;;3353786;42;20095;-59
2022/06/27 13:00:03;;;;;;;6.28;2.58;;;;;;;;;;3344740;42;20100;-57
2022/06/27 13:02:29;;;;;;;6.65;2.67;;;;;;;;;;3346843;42;20100;-56
2022/06/27 13:04:55;;;;;;;5.95;2.53;;;;;;;;;;3344775;42;20209;-61
2022/06/27 13:07:21;;;;;;;8.93;2.60;;;;;;;;;;3344451;42;20138;-60
2022/06/27 13:09:47;;;;;;;6.57;2.43;;;;;;;;;;3342805;42;20802;-58
2022/06/27 13:12:13;;;;;;;6.85;2.55;;;;;;;;;;3343343;42;20172;-57
2022/06/27 13:14:39;;;;;;;6.60;2.70;;;;;;;;;;3345259;42;20144;-58
2022/06/27 13:17:05;;;;;;;7.30;3.00;;;;;;;;;;3343683;42;20224;-58
2022/06/27 13:19:31;;;;;;;6.80;2.63;;;;;;;;;;3345852;42;20234;-51
2022/06/27 13:21:58;;;;;;;7.95;2.72;;;;;;;;;;3339885;42;20639;-58
2022/06/27 13:24:24;;;;;;;6.30;2.70;;;;;;;;;;3339758;42;20103;-62
2022/06/27 13:26:51;;;;;;;8.32;3.15;;;;;;;;;;3339452;42;20140;-58
2022/06/27 13:29:17;;;;;;;10.05;3.25;;;;;;;;;;3340653;42;20557;-59
2022/06/27 13:31:43;;;;;;;6.53;2.57;;;;;;;;;;3342804;42;20089;-60
2022/06/27 13:34:10;;;;;;;7.95;3.20;;;;;;;;;;3348085;42;20574;-58
2022/06/27 13:36:36;;;;;;;7.10;2.70;;;;;;;;;;3342899;42;20093;-58
2022/06/27 13:39:02;;;;;;;6.97;2.77;;;;;;;;;;3346051;42;20096;-57
2022/06/27 13:41:28;;;;;;;7.00;2.60;;;;;;;;;;3344017;42;20124;-59
2022/06/27 13:43:54;;;;;;;6.63;2.50;;;;;;;;;;3342165;42;20112;-57
2022/06/27 13:46:20;;;;;;;6.20;2.80;;;;;;;;;;3351398;42;20109;-56
2022/06/27 13:48:46;;;;;;;7.63;2.90;;;;;;;;;;3343033;42;20112;-60
2022/06/27 13:51:12;;;;;;;6.03;2.70;;;;;;;;;;3350101;42;20089;-57
2022/06/27 13:53:38;;;;;;;7.35;2.83;;;;;;;;;;3348104;42;20647;-60
2022/06/27 13:56:04;;;;;;;6.82;2.90;;;;;;;;;;3344860;42;20607;-59
2022/06/27 13:58:31;;;;;;;9.90;3.67;;;;;;;;;;3344594;42;20093;-58
2022/06/27 14:00:57;;;;;;;7.18;2.95;;;;;;;;;;3344306;42;20092;-60
2022/06/27 14:03:23;;;;;;;8.75;2.95;;;;;;;;;;3346619;42;20129;-60
2022/06/27 14:05:50;;;;;;;7.72;2.92;;;;;;;;;;3352439;42;20095;-57
2022/06/27 14:08:17;;;;;;;9.23;3.55;;;;;;;;;;3347994;42;20499;-58
2022/06/27 14:10:56;;;;;;;6.63;2.90;;;;;;;;;;3344752;42;20488;-56
2022/06/27 14:13:22;;;;;;;6.78;2.92;;;;;;;;;;3347638;42;20597;-56
2022/06/27 14:15:48;;;;;;;11.20;3.15;;;;;;;;;;3339352;42;20093;-60
2022/06/27 14:18:14;;;;;;;8.35;3.67;;;;;;;;;;3347692;42;20179;-58
2022/06/27 14:20:40;;;;;;;6.65;2.95;;;;;;;;;;3344018;42;20088;-58
2022/06/27 14:23:06;;;;;;;7.47;3.03;;;;;;;;;;3342794;42;20100;-59
2022/06/27 14:25:32;;;;;;;9.13;3.40;;;;;;;;;;3346906;42;20196;-59
2022/06/27 14:27:58;;;;;;;7.93;3.17;;;;;;;;;;3346976;42;20073;-56
2022/06/27 14:30:24;;;;;;;7.63;3.40;;;;;;;;;;3343403;42;20552;-58
2022/06/27 14:32:50;;;;;;;7.38;3.10;;;;;;;;;;3344765;42;20080;-57
2022/06/27 14:35:16;;;;;;;7.88;3.30;;;;;;;;;;3343533;42;20140;-58
2022/06/27 14:37:42;;;;;;;7.90;2.90;;;;;;;;;;3345566;42;20088;-59
2022/06/27 14:40:09;;;;;;;8.93;3.60;;;;;;;;;;3348171;42;20156;-60
2022/06/27 14:42:35;;;;;;;7.03;3.47;;;;;;;;;;3344768;42;20144;-57
2022/06/27 14:45:01;;;;;;;8.57;3.33;;;;;;;;;;3345162;42;20548;-58
2022/06/27 14:47:27;;;;;;;6.70;3.00;;;;;;;;;;3346142;42;20153;-58
2022/06/27 14:49:53;;;;;;;6.88;3.10;;;;;;;;;;3345108;42;20091;-58
2022/06/27 14:52:19;;;;;;;8.53;3.47;;;;;;;;;;3347652;42;20085;-58
2022/06/27 14:54:45;;;;;;;6.72;3.00;;;;;;;;;;3344698;42;20092;-57
2022/06/27 14:57:11;;;;;;;7.20;3.28;;;;;;;;;;3343878;42;20096;-59